Detall de PIREP

Printer-friendly versionPDF version

[2014/07/14 08:09:00]
Flight IATA:CT3302
Pilot Number:042
Company ICAO:CAT
Aircraft Type:F100/A
PAX:48
Aircraft Registration:PFJ
Departing Airport: LEZG
Destination Airport: DTTA
Alternate Airport:DTTA
Online: VATSIM
Route:GRAUS UM601 BCN UN725 NOLVI UM739 TABOT UR723 TANIT UM733 TUC
Flight Level:F330
No Slew and time accel
No pause
Crash detect
Detect pilot in Cockpit between each 30 and 45 minutes
08:09 Zero fuel Weight: 81826 Lbs, Fuel Weight: 22687 Lbs
08:09 VATSIM:LEZG 140730Z 31016KT 280V340 9999 FEW045 22/14 Q1019
08:09 VATSIM:DTTA 140700Z 00000KT 9999 FEW033 27/19 Q1015 NOSIG
08:11 Parking Brakes off
08:13 Take-off
08:13 Take off Weight: 104214 Lbs
08:13 Wind: 310º @ 016 Knots Heading: 300º
08:13 POS N41º 39´ 52´´ W001º 01´ 45´´
08:13 Gear Up: 180 Knots
08:13 Flaps:2 at 180 Knots
08:13 Flaps:1 at 184 Knots
08:13 Flaps:0 at 203 Knots
08:28 Wind:310º@034 Knots Heading: 082º Ground Speed: 464 Knots Altitude 25410 ft
08:35 TOC
08:35 Fuel Weight: 19593 Lb
08:43 Wind:053º@033 Knots Heading: 099º Ground Speed: 426 Knots Altitude 33087 ft
08:58 Wind:029º@023 Knots Heading: 095º Ground Speed: 442 Knots Altitude 33103 ft
09:13 Wind:297º@018 Knots Heading: 138º Ground Speed: 464 Knots Altitude 33067 ft
09:28 Wind:304º@027 Knots Heading: 133º Ground Speed: 476 Knots Altitude 33074 ft
09:34 TOD
09:34 Fuel Weight: 15000 Lb
09:43 Wind:333º@011 Knots Heading: 142º Ground Speed: 336 Knots Altitude 16666 ft
09:54 Flaps:1 at 182 Knots
09:54 Flaps:2 at 181 Knots
09:54 Gear Down: 181 Knots
09:54 Flaps:3 at 178 Knots
09:57 TouchDown:Rate -162 ft/min Speed: 152 Knots
09:58 Wind:045º@004 Knots Heading: 293º Ground Speed: 135 Knots Altitude 029 ft
09:58 VATSIM:DTTA 140900Z VRB04KT 9999 FEW033 29/18 Q1015 NOSIG
09:58 Land
09:58 Wind:044º@004 Knots
09:58 Heading: 295º
09:58 Flight Duration: 01:45
09:58 Landing Weight: 95921 Lbs
09:58 POS N36º 51´ 07´´ E010º 13´ 30´´
10:01 Parking brakes on
10:01 Block to Block Duration: 01:50
10:01 Final Fuel: 13946 Lbls
10:01 Spent Fuel: 8741 Lbls
10:01 Flight Length: 702 NM
10:01 TOD Land Length: 117 NM

Exportar CSV

Powered by Drupal - Modified by Danger4k